Time;durP1;ratioP1;P1;durP2;ratioP2;P2;SDS_P1;SDS_P2;PMS_P1;PMS_P2;Temp;Humidity;BMP_temperature;BMP_pressure;BME280_temperature;BME280_humidity;BME280_pressure;Samples;Min_cycle;Max_cycle;Signal;HPM_P1;HPM_P2
2022/09/19 00:00:17;;;;;;;2.7;5;;;;;;;9.7;84.9;97860;;;;
2022/09/19 00:10:16;;;;;;;2.7;5;;;;;;;9.5;84.6;97850;;;;
2022/09/19 00:20:16;;;;;;;1.8;2.9;;;;;;;9.5;84.9;97840;;;;
2022/09/19 00:31:17;;;;;;;1.8;2.9;;;;;;;9.5;85.1;97840;;;;
2022/09/19 00:42:16;;;;;;;1.8;2.9;;;;;;;9.6;85.2;97830;;;;
2022/09/19 00:52:16;;;;;;;1.7;3.9;;;;;;;9.5;85.6;97830;;;;
2022/09/19 01:02:18;;;;;;;1.7;3.9;;;;;;;9.5;85.7;97830;;;;
2022/09/19 01:13:16;;;;;;;1.7;3.9;;;;;;;9.5;85.9;97840;;;;
2022/09/19 01:24:19;;;;;;;1.3;2.9;;;;;;;9.5;86.2;97850;;;;
2022/09/19 01:35:16;;;;;;;1.3;2.9;;;;;;;9.3;86.6;97860;;;;
2022/09/19 01:45:16;;;;;;;1.7;3.4;;;;;;;9.3;86.9;97860;;;;
2022/09/19 01:56:16;;;;;;;1.7;3.4;;;;;;;9.2;87.9;97870;;;;
2022/09/19 02:07:16;;;;;;;1.7;3.4;;;;;;;9.2;88.2;97870;;;;
2022/09/19 02:17:16;;;;;;;5.9;10;;;;;;;9.2;88;97880;;;;
2022/09/19 02:27:17;;;;;;;5.9;10;;;;;;;9.1;87.6;97880;;;;
2022/09/19 02:37:18;;;;;;;5.9;10;;;;;;;9;87.2;97900;;;;
2022/09/19 02:48:16;;;;;;;3.9;6.5;;;;;;;8.9;86.5;97890;;;;
2022/09/19 02:59:17;;;;;;;3.9;6.5;;;;;;;8.9;86.5;97900;;;;
2022/09/19 03:09:16;;;;;;;3.9;6.5;;;;;;;8.7;87.2;97900;;;;
2022/09/19 03:20:16;;;;;;;3;5.9;;;;;;;8.8;87.6;97920;;;;
2022/09/19 03:30:16;;;;;;;3;5.9;;;;;;;8.9;87.5;97920;;;;
2022/09/19 03:41:16;;;;;;;3;5.9;;;;;;;9;87.4;97930;;;;
2022/09/19 03:51:16;;;;;;;3.2;5.4;;;;;;;9;87.2;97930;;;;
2022/09/19 04:01:16;;;;;;;3.2;5.4;;;;;;;9;87;97940;;;;
2022/09/19 04:12:16;;;;;;;3.2;5.4;;;;;;;9;86.7;97930;;;;
2022/09/19 04:23:16;;;;;;;2.9;5;;;;;;;8.9;86.4;97940;;;;
2022/09/19 04:34:16;;;;;;;2.9;5;;;;;;;8.7;86;97940;;;;
2022/09/19 04:44:16;;;;;;;2.9;5;;;;;;;8.7;86.2;97950;;;;
2022/09/19 04:55:16;;;;;;;3.4;5.7;;;;;;;8.6;86.5;97970;;;;
2022/09/19 05:06:17;;;;;;;3.4;5.7;;;;;;;8.8;86.4;97970;;;;
2022/09/19 05:16:18;;;;;;;5.1;9.5;;;;;;;8.9;86.4;97990;;;;
2022/09/19 05:27:16;;;;;;;5.1;9.5;;;;;;;9.1;86.1;98000;;;;
2022/09/19 05:37:16;;;;;;;5.1;9.5;;;;;;;9.2;85.6;98010;;;;
2022/09/19 05:48:16;;;;;;;4;7.2;;;;;;;9.2;85;98030;;;;
2022/09/19 05:58:17;;;;;;;4;7.2;;;;;;;9.3;85.1;98030;;;;
2022/09/19 06:09:16;;;;;;;4;7.2;;;;;;;9.6;84.1;98040;;;;
2022/09/19 06:20:16;;;;;;;4.6;6.9;;;;;;;9.9;83.3;98040;;;;
2022/09/19 06:31:16;;;;;;;4.6;6.9;;;;;;;9.9;82.8;98060;;;;
2022/09/19 06:42:16;;;;;;;4.6;6.9;;;;;;;10;81.7;98060;;;;
2022/09/19 06:53:16;;;;;;;4.6;8.4;;;;;;;10.2;81.1;98070;;;;
2022/09/19 07:04:16;;;;;;;4.6;8.4;;;;;;;10.1;81.9;98090;;;;
2022/09/19 07:14:16;;;;;;;4.2;7.3;;;;;;;10.3;82;98100;;;;
2022/09/19 07:25:16;;;;;;;4.2;7.3;;;;;;;10.8;82.2;98110;;;;
2022/09/19 07:35:16;;;;;;;4.2;7.3;;;;;;;11.3;79.9;98110;;;;
2022/09/19 07:46:17;;;;;;;6.1;10.5;;;;;;;11.3;78.4;98120;;;;
2022/09/19 07:56:16;;;;;;;6.1;10.5;;;;;;;11.3;78;98120;;;;
2022/09/19 08:07:17;;;;;;;6.1;10.5;;;;;;;10.8;79.2;98130;;;;
2022/09/19 08:17:16;;;;;;;5;8.7;;;;;;;11.1;78.9;98140;;;;
2022/09/19 08:27:17;;;;;;;5;8.7;;;;;;;11.3;78.2;98130;;;;
2022/09/19 08:38:16;;;;;;;5;8.7;;;;;;;11.4;76.9;98130;;;;
2022/09/19 08:48:16;;;;;;;3.1;5.3;;;;;;;11.7;77.2;98120;;;;
2022/09/19 08:59:16;;;;;;;3.1;5.3;;;;;;;12.7;74.9;98120;;;;
2022/09/19 09:09:16;;;;;;;3.1;5.3;;;;;;;12.9;74.8;98120;;;;
2022/09/19 09:19:17;;;;;;;3.4;5.3;;;;;;;12.4;72.6;98120;;;;
2022/09/19 09:30:16;;;;;;;3.4;5.3;;;;;;;12.3;73.5;98120;;;;
2022/09/19 09:41:49;;;;;;;3.4;5.3;;;;;;;12.9;72.3;98120;;;;
2022/09/19 09:51:18;;;;;;;4.2;7.2;;;;;;;13.3;69.6;98130;;;;
2022/09/19 10:13:16;;;;;;;4.2;7.2;;;;;;;11.4;74.5;98160;;;;
2022/09/19 10:24:16;;;;;;;2.1;5.3;;;;;;;11.6;75.3;98180;;;;
2022/09/19 10:34:16;;;;;;;2.1;5.3;;;;;;;12;75.7;98190;;;;
2022/09/19 10:44:16;;;;;;;4;6.4;;;;;;;12.1;76.1;98200;;;;
2022/09/19 10:55:20;;;;;;;4;6.4;;;;;;;11.6;74.3;98220;;;;
2022/09/19 11:05:16;;;;;;;4;6.4;;;;;;;11.5;76.9;98240;;;;
2022/09/19 11:16:17;;;;;;;2.2;3.9;;;;;;;11.3;77.9;98240;;;;
2022/09/19 11:26:16;;;;;;;2.2;3.9;;;;;;;11.1;79;98230;;;;
2022/09/19 11:37:16;;;;;;;2.2;3.9;;;;;;;11.1;78.8;98230;;;;
2022/09/19 11:48:16;;;;;;;1.2;2.4;;;;;;;11.2;78.5;98230;;;;
2022/09/19 11:59:17;;;;;;;1.2;2.4;;;;;;;12;78.1;98220;;;;
2022/09/19 12:10:16;;;;;;;1.2;2.4;;;;;;;13;74.2;98220;;;;
2022/09/19 12:21:18;;;;;;;2.6;4.7;;;;;;;13.6;71.6;98200;;;;
2022/09/19 12:32:16;;;;;;;2.6;4.7;;;;;;;12.9;72;98220;;;;
2022/09/19 12:42:17;;;;;;;2.6;4.7;;;;;;;10.7;79.4;98230;;;;
2022/09/19 12:53:17;;;;;;;1.9;4.2;;;;;;;10.1;82.9;98230;;;;
2022/09/19 13:03:17;;;;;;;1.9;4.2;;;;;;;9.9;85.9;98240;;;;
2022/09/19 13:14:16;;;;;;;1.9;3.8;;;;;;;10;86.8;98230;;;;
2022/09/19 13:24:17;;;;;;;1.9;3.8;;;;;;;10.4;85.1;98230;;;;
2022/09/19 13:35:16;;;;;;;1.9;3.8;;;;;;;11;84;98240;;;;
2022/09/19 13:46:16;;;;;;;2.1;3.9;;;;;;;12.1;82;98250;;;;
2022/09/19 13:57:17;;;;;;;2.1;3.9;;;;;;;12.2;75.7;98250;;;;
2022/09/19 14:07:17;;;;;;;2.1;3.9;;;;;;;13.1;75.7;98260;;;;
2022/09/19 14:18:17;;;;;;;1.9;3.8;;;;;;;12.8;77.1;98260;;;;
2022/09/19 14:28:16;;;;;;;1.9;3.8;;;;;;;12.3;74.4;98270;;;;
2022/09/19 14:38:19;;;;;;;1.9;3.8;;;;;;;12.2;75.2;98270;;;;
2022/09/19 14:49:17;;;;;;;3.3;5.5;;;;;;;11.8;76.2;98290;;;;
2022/09/19 14:59:17;;;;;;;3.3;5.5;;;;;;;11.4;77.6;98300;;;;
2022/09/19 15:09:16;;;;;;;3.3;5.5;;;;;;;11.3;79.3;98290;;;;
2022/09/19 15:19:17;;;;;;;2.8;5.7;;;;;;;11.4;80.5;98290;;;;
2022/09/19 15:29:16;;;;;;;2.8;5.7;;;;;;;11.5;79.6;98300;;;;
2022/09/19 15:40:16;;;;;;;2.8;5.7;;;;;;;11.7;80.1;98300;;;;
2022/09/19 15:51:17;;;;;;;2.3;4.7;;;;;;;12.2;78.2;98300;;;;
2022/09/19 16:02:16;;;;;;;2.3;4.7;;;;;;;11.9;77.9;98310;;;;
2022/09/19 16:13:18;;;;;;;2.3;4.7;;;;;;;11.5;78.1;98310;;;;
2022/09/19 16:24:16;;;;;;;3.5;7.5;;;;;;;11.1;78.7;98320;;;;
2022/09/19 16:34:17;;;;;;;3.5;7.5;;;;;;;10.7;79.7;98340;;;;
2022/09/19 16:45:16;;;;;;;4.3;8.4;;;;;;;10.5;80.3;98350;;;;
2022/09/19 16:56:17;;;;;;;4.3;8.4;;;;;;;10.2;80.8;98370;;;;
2022/09/19 17:06:17;;;;;;;4.3;8.4;;;;;;;10.2;80.6;98380;;;;
2022/09/19 17:16:18;;;;;;;4.6;9.2;;;;;;;10.1;80.7;98390;;;;
2022/09/19 17:27:16;;;;;;;4.6;9.2;;;;;;;10;81.2;98400;;;;
2022/09/19 17:37:16;;;;;;;4.6;9.2;;;;;;;9.7;81.3;98410;;;;
2022/09/19 17:47:16;;;;;;;4.1;6.5;;;;;;;9.6;83.5;98430;;;;
2022/09/19 17:57:16;;;;;;;4.1;6.5;;;;;;;9.7;84.3;98440;;;;
2022/09/19 18:08:16;;;;;;;4.1;6.5;;;;;;;9.6;85;98440;;;;
2022/09/19 18:19:16;;;;;;;4.3;7;;;;;;;9.7;85.1;98450;;;;
2022/09/19 18:30:16;;;;;;;4.3;7;;;;;;;9.6;85.2;98450;;;;
2022/09/19 18:40:16;;;;;;;4.3;7;;;;;;;9.5;85.6;98460;;;;
2022/09/19 18:51:17;;;;;;;4.1;6.9;;;;;;;9.6;85.9;98460;;;;
2022/09/19 19:02:16;;;;;;;4.1;6.9;;;;;;;9.5;86.2;98460;;;;
2022/09/19 19:13:16;;;;;;;4.1;6.9;;;;;;;9.6;86.1;98460;;;;
2022/09/19 19:24:16;;;;;;;5.4;10.3;;;;;;;9.6;86.3;98460;;;;
2022/09/19 19:34:16;;;;;;;5.4;10.3;;;;;;;9.5;86.5;98460;;;;
2022/09/19 19:45:16;;;;;;;5.5;9.4;;;;;;;9.5;86.4;98460;;;;
2022/09/19 19:55:17;;;;;;;5.5;9.4;;;;;;;9.6;86.5;98460;;;;
2022/09/19 20:05:16;;;;;;;5.5;9.4;;;;;;;9.5;86.5;98460;;;;
2022/09/19 20:15:17;;;;;;;4.9;8.6;;;;;;;9.5;86.5;98460;;;;
2022/09/19 20:25:16;;;;;;;4.9;8.6;;;;;;;9.3;86.8;98450;;;;
2022/09/19 20:35:16;;;;;;;4.9;8.6;;;;;;;9.4;87.1;98440;;;;
2022/09/19 20:45:16;;;;;;;4;7.7;;;;;;;9.3;87.3;98450;;;;
2022/09/19 20:56:17;;;;;;;;;;;;;;;;;;;;;
2022/09/19 21:06:17;;;;;;;4;7.7;;;;;;;9.4;87.4;98440;;;;
2022/09/19 21:17:16;;;;;;;3.4;8.1;;;;;;;9.4;87.6;98450;;;;
2022/09/19 21:28:16;;;;;;;3.4;8.1;;;;;;;9.4;88.1;98450;;;;
2022/09/19 21:38:17;;;;;;;3.4;8.1;;;;;;;9.5;88.1;98460;;;;
2022/09/19 21:49:16;;;;;;;4;6.1;;;;;;;9.5;88.2;98460;;;;
2022/09/19 21:59:17;;;;;;;4;6.1;;;;;;;9.6;88.4;98470;;;;
2022/09/19 22:10:17;;;;;;;4;6.1;;;;;;;9.6;88.6;98470;;;;
2022/09/19 22:20:17;;;;;;;6;10.4;;;;;;;9.7;88.5;98470;;;;
2022/09/19 22:31:18;;;;;;;6;10.4;;;;;;;9.7;88.8;98470;;;;
2022/09/19 22:42:17;;;;;;;6;10.4;;;;;;;9.8;89;98480;;;;
2022/09/19 22:53:17;;;;;;;8.7;15;;;;;;;9.9;88.9;98480;;;;
2022/09/19 23:03:17;;;;;;;8.7;15;;;;;;;9.9;88.8;98480;;;;
2022/09/19 23:13:52;;;;;;;7.5;11;;;;;;;9.9;89;98480;;;;
2022/09/19 23:23:17;;;;;;;7.5;11;;;;;;;10;89;98490;;;;
2022/09/19 23:34:17;;;;;;;7.5;11;;;;;;;10;89.2;98510;;;;
2022/09/19 23:45:17;;;;;;;7.6;10.6;;;;;;;10.1;89.3;98510;;;;
2022/09/19 23:56:17;;;;;;;7.6;10.6;;;;;;;10.2;89.1;98510;;;;
